sensor_id;sensor_type;location;lat;lon;timestamp;pressure;altitude;pressure_sealevel;temperature;humidity
75166;BME280;63747;48.042;10.088;2023-08-31T00:00:12;94655.19;;;12.34;64.02
75166;BME280;63747;48.042;10.088;2023-08-31T00:03:13;94664.59;;;12.36;64.27
75166;BME280;63747;48.042;10.088;2023-08-31T00:06:14;94659.69;;;12.40;64.26
75166;BME280;63747;48.042;10.088;2023-08-31T00:09:14;94660.75;;;12.45;64.19
75166;BME280;63747;48.042;10.088;2023-08-31T00:12:15;94665.84;;;12.47;64.11
75166;BME280;63747;48.042;10.088;2023-08-31T00:15:15;94667.31;;;12.49;64.22
75166;BME280;63747;48.042;10.088;2023-08-31T00:18:16;94664.03;;;12.47;64.59
75166;BME280;63747;48.042;10.088;2023-08-31T00:21:16;94664.25;;;12.52;64.55
75166;BME280;63747;48.042;10.088;2023-08-31T00:24:17;94668.13;;;12.50;64.52
75166;BME280;63747;48.042;10.088;2023-08-31T00:27:17;94666.72;;;12.54;64.47
75166;BME280;63747;48.042;10.088;2023-08-31T00:30:18;94670.00;;;12.56;65.00
75166;BME280;63747;48.042;10.088;2023-08-31T00:33:18;94679.16;;;12.53;65.08
75166;BME280;63747;48.042;10.088;2023-08-31T00:36:19;94675.53;;;12.55;65.22
75166;BME280;63747;48.042;10.088;2023-08-31T00:39:19;94683.28;;;12.56;65.33
75166;BME280;63747;48.042;10.088;2023-08-31T00:42:20;94687.38;;;12.59;65.21
75166;BME280;63747;48.042;10.088;2023-08-31T00:45:21;94693.75;;;12.64;65.25
75166;BME280;63747;48.042;10.088;2023-08-31T00:48:22;94694.56;;;12.65;65.30
75166;BME280;63747;48.042;10.088;2023-08-31T00:51:23;94687.63;;;12.64;65.92
75166;BME280;63747;48.042;10.088;2023-08-31T00:54:23;94694.34;;;12.60;66.29
75166;BME280;63747;48.042;10.088;2023-08-31T00:57:24;94704.56;;;12.56;66.39
75166;BME280;63747;48.042;10.088;2023-08-31T01:00:31;94711.69;;;12.49;67.10
75166;BME280;63747;48.042;10.088;2023-08-31T01:09:36;94704.09;;;12.46;67.01
75166;BME280;63747;48.042;10.088;2023-08-31T01:15:46;94712.03;;;12.39;67.70
75166;BME280;63747;48.042;10.088;2023-08-31T01:18:51;94711.00;;;12.34;67.75
75166;BME280;63747;48.042;10.088;2023-08-31T01:21:54;94715.25;;;12.28;67.71
75166;BME280;63747;48.042;10.088;2023-08-31T01:24:55;94721.56;;;12.20;68.01
75166;BME280;63747;48.042;10.088;2023-08-31T01:27:56;94725.59;;;12.16;68.28
75166;BME280;63747;48.042;10.088;2023-08-31T01:31:03;94725.59;;;12.16;68.05
75166;BME280;63747;48.042;10.088;2023-08-31T01:34:03;94733.78;;;12.15;68.54
75166;BME280;63747;48.042;10.088;2023-08-31T01:37:05;94727.66;;;12.14;68.51
75166;BME280;63747;48.042;10.088;2023-08-31T01:40:11;94740.09;;;12.14;68.39
75166;BME280;63747;48.042;10.088;2023-08-31T01:43:14;94730.25;;;12.08;68.42
75166;BME280;63747;48.042;10.088;2023-08-31T01:46:15;94717.94;;;12.00;68.83
75166;BME280;63747;48.042;10.088;2023-08-31T01:49:16;94733.50;;;12.03;68.60
75166;BME280;63747;48.042;10.088;2023-08-31T01:52:17;94734.88;;;11.99;68.79
75166;BME280;63747;48.042;10.088;2023-08-31T01:55:17;94729.56;;;11.99;68.48
75166;BME280;63747;48.042;10.088;2023-08-31T01:58:18;94730.78;;;11.96;68.67
75166;BME280;63747;48.042;10.088;2023-08-31T02:01:18;94734.75;;;11.86;69.21
75166;BME280;63747;48.042;10.088;2023-08-31T02:04:19;94735.09;;;11.76;69.45
75166;BME280;63747;48.042;10.088;2023-08-31T02:07:19;94738.75;;;11.75;69.11
75166;BME280;63747;48.042;10.088;2023-08-31T02:10:20;94737.28;;;11.66;69.70
75166;BME280;63747;48.042;10.088;2023-08-31T02:13:20;94737.22;;;11.59;69.93
75166;BME280;63747;48.042;10.088;2023-08-31T02:16:21;94745.59;;;11.63;69.43
75166;BME280;63747;48.042;10.088;2023-08-31T02:19:21;94746.34;;;11.57;69.71
75166;BME280;63747;48.042;10.088;2023-08-31T02:22:22;94757.44;;;11.60;69.49
75166;BME280;63747;48.042;10.088;2023-08-31T02:25:22;94756.03;;;11.64;69.19
75166;BME280;63747;48.042;10.088;2023-08-31T02:28:23;94762.34;;;11.63;69.24
75166;BME280;63747;48.042;10.088;2023-08-31T02:31:24;94757.66;;;11.65;69.42
75166;BME280;63747;48.042;10.088;2023-08-31T02:34:24;94761.78;;;11.68;68.97
75166;BME280;63747;48.042;10.088;2023-08-31T02:37:25;94757.72;;;11.72;69.03
75166;BME280;63747;48.042;10.088;2023-08-31T02:40:25;94763.88;;;11.73;68.63
75166;BME280;63747;48.042;10.088;2023-08-31T02:43:26;94770.56;;;11.68;68.76
75166;BME280;63747;48.042;10.088;2023-08-31T02:46:28;94771.31;;;11.62;68.76
75166;BME280;63747;48.042;10.088;2023-08-31T02:49:29;94768.41;;;11.57;68.50
75166;BME280;63747;48.042;10.088;2023-08-31T02:52:29;94776.31;;;11.51;68.74
75166;BME280;63747;48.042;10.088;2023-08-31T02:55:32;94777.94;;;11.52;68.44
75166;BME280;63747;48.042;10.088;2023-08-31T02:58:33;94772.41;;;11.47;68.52
75166;BME280;63747;48.042;10.088;2023-08-31T03:01:33;94769.38;;;11.50;68.63
75166;BME280;63747;48.042;10.088;2023-08-31T03:04:35;94769.06;;;11.59;68.18
75166;BME280;63747;48.042;10.088;2023-08-31T03:07:35;94766.28;;;11.67;67.78
75166;BME280;63747;48.042;10.088;2023-08-31T03:10:36;94770.50;;;11.62;68.07
75166;BME280;63747;48.042;10.088;2023-08-31T03:13:37;94772.53;;;11.60;68.22
75166;BME280;63747;48.042;10.088;2023-08-31T03:16:37;94782.69;;;11.56;68.14
75166;BME280;63747;48.042;10.088;2023-08-31T03:19:38;94773.66;;;11.51;68.19
75166;BME280;63747;48.042;10.088;2023-08-31T03:22:38;94771.19;;;11.49;68.38
75166;BME280;63747;48.042;10.088;2023-08-31T03:25:42;94770.94;;;11.44;68.25
75166;BME280;63747;48.042;10.088;2023-08-31T03:28:42;94756.84;;;11.43;68.18
75166;BME280;63747;48.042;10.088;2023-08-31T03:31:43;94765.81;;;11.42;68.34
75166;BME280;63747;48.042;10.088;2023-08-31T03:34:44;94776.44;;;11.42;68.12
75166;BME280;63747;48.042;10.088;2023-08-31T03:37:47;94782.56;;;11.43;68.15
75166;BME280;63747;48.042;10.088;2023-08-31T03:40:54;94781.31;;;11.39;68.29
75166;BME280;63747;48.042;10.088;2023-08-31T03:43:55;94793.31;;;11.35;68.41
75166;BME280;63747;48.042;10.088;2023-08-31T03:46:55;94787.38;;;11.33;68.67
75166;BME280;63747;48.042;10.088;2023-08-31T03:49:56;94791.88;;;11.32;68.84
75166;BME280;63747;48.042;10.088;2023-08-31T03:52:56;94805.28;;;11.31;68.84
75166;BME280;63747;48.042;10.088;2023-08-31T03:55:57;94813.25;;;11.31;69.09
75166;BME280;63747;48.042;10.088;2023-08-31T03:58:58;94791.78;;;11.26;69.11
75166;BME280;63747;48.042;10.088;2023-08-31T04:01:58;94797.25;;;11.24;69.39
75166;BME280;63747;48.042;10.088;2023-08-31T04:04:59;94804.25;;;11.25;69.34
75166;BME280;63747;48.042;10.088;2023-08-31T04:08:00;94806.91;;;11.25;69.33
75166;BME280;63747;48.042;10.088;2023-08-31T04:11:00;94806.31;;;11.30;69.22
75166;BME280;63747;48.042;10.088;2023-08-31T04:14:01;94812.69;;;11.35;69.18
75166;BME280;63747;48.042;10.088;2023-08-31T04:17:01;94810.31;;;11.40;69.08
75166;BME280;63747;48.042;10.088;2023-08-31T04:20:05;94815.91;;;11.46;68.98
75166;BME280;63747;48.042;10.088;2023-08-31T04:23:05;94805.34;;;11.52;68.72
75166;BME280;63747;48.042;10.088;2023-08-31T04:26:09;94814.94;;;11.53;68.68
75166;BME280;63747;48.042;10.088;2023-08-31T04:29:10;94815.56;;;11.55;68.62
75166;BME280;63747;48.042;10.088;2023-08-31T04:32:11;94810.06;;;11.57;68.80
75166;BME280;63747;48.042;10.088;2023-08-31T04:35:11;94807.59;;;11.55;68.58
75166;BME280;63747;48.042;10.088;2023-08-31T04:38:12;94810.06;;;11.57;68.69
75166;BME280;63747;48.042;10.088;2023-08-31T04:41:12;94815.56;;;11.55;68.77
75166;BME280;63747;48.042;10.088;2023-08-31T04:44:13;94822.44;;;11.50;68.87
75166;BME280;63747;48.042;10.088;2023-08-31T04:47:14;94827.13;;;11.48;69.08
75166;BME280;63747;48.042;10.088;2023-08-31T04:50:14;94823.66;;;11.47;68.97
75166;BME280;63747;48.042;10.088;2023-08-31T04:53:15;94825.31;;;11.48;69.27
75166;BME280;63747;48.042;10.088;2023-08-31T04:56:15;94833.25;;;11.48;69.15
75166;BME280;63747;48.042;10.088;2023-08-31T04:59:16;94836.66;;;11.42;69.54
75166;BME280;63747;48.042;10.088;2023-08-31T05:02:16;94836.47;;;11.43;69.35
75166;BME280;63747;48.042;10.088;2023-08-31T05:05:17;94836.94;;;11.47;69.51
75166;BME280;63747;48.042;10.088;2023-08-31T05:08:20;94844.78;;;11.55;69.27
75166;BME280;63747;48.042;10.088;2023-08-31T05:11:21;94850.56;;;11.65;68.84
75166;BME280;63747;48.042;10.088;2023-08-31T05:14:22;94851.22;;;11.67;68.72
75166;BME280;63747;48.042;10.088;2023-08-31T05:17:22;94853.13;;;11.74;68.41
75166;BME280;63747;48.042;10.088;2023-08-31T05:20:23;94865.66;;;11.80;68.40
75166;BME280;63747;48.042;10.088;2023-08-31T05:23:23;94872.69;;;11.87;68.45
75166;BME280;63747;48.042;10.088;2023-08-31T05:26:24;94853.69;;;11.90;68.31
75166;BME280;63747;48.042;10.088;2023-08-31T05:29:24;94865.94;;;11.91;68.07
75166;BME280;63747;48.042;10.088;2023-08-31T05:32:27;94868.00;;;11.89;68.42
75166;BME280;63747;48.042;10.088;2023-08-31T05:35:28;94873.41;;;11.96;68.19
75166;BME280;63747;48.042;10.088;2023-08-31T05:38:28;94875.91;;;12.04;68.13
75166;BME280;63747;48.042;10.088;2023-08-31T05:41:29;94885.16;;;12.08;67.83
75166;BME280;63747;48.042;10.088;2023-08-31T05:44:29;94863.50;;;12.11;67.90
75166;BME280;63747;48.042;10.088;2023-08-31T05:47:30;94873.13;;;12.12;67.82
75166;BME280;63747;48.042;10.088;2023-08-31T05:50:31;94878.84;;;12.09;67.84
75166;BME280;63747;48.042;10.088;2023-08-31T05:53:32;94885.78;;;12.10;68.09
75166;BME280;63747;48.042;10.088;2023-08-31T05:56:33;94885.41;;;12.13;67.98
75166;BME280;63747;48.042;10.088;2023-08-31T05:59:33;94890.75;;;12.13;67.84
75166;BME280;63747;48.042;10.088;2023-08-31T06:02:34;94882.94;;;12.12;67.71
75166;BME280;63747;48.042;10.088;2023-08-31T06:05:35;94885.16;;;12.08;67.63
75166;BME280;63747;48.042;10.088;2023-08-31T06:08:36;94881.84;;;12.06;67.83
75166;BME280;63747;48.042;10.088;2023-08-31T06:11:36;94885.03;;;12.16;67.86
75166;BME280;63747;48.042;10.088;2023-08-31T06:14:37;94882.63;;;12.21;67.47
75166;BME280;63747;48.042;10.088;2023-08-31T06:17:37;94883.44;;;12.22;67.69
75166;BME280;63747;48.042;10.088;2023-08-31T06:20:38;94902.66;;;12.24;67.80
75166;BME280;63747;48.042;10.088;2023-08-31T06:23:39;94907.97;;;12.24;67.88
75166;BME280;63747;48.042;10.088;2023-08-31T06:26:39;94907.97;;;12.24;67.79
75166;BME280;63747;48.042;10.088;2023-08-31T06:29:40;94915.44;;;12.35;67.45
75166;BME280;63747;48.042;10.088;2023-08-31T06:32:41;94922.31;;;12.51;67.56
75166;BME280;63747;48.042;10.088;2023-08-31T06:35:42;94923.91;;;12.73;66.96
75166;BME280;63747;48.042;10.088;2023-08-31T06:38:42;94929.97;;;12.89;66.66
75166;BME280;63747;48.042;10.088;2023-08-31T06:41:44;94919.44;;;13.02;66.79
75166;BME280;63747;48.042;10.088;2023-08-31T06:44:45;94924.41;;;13.12;66.60
75166;BME280;63747;48.042;10.088;2023-08-31T06:47:46;94933.09;;;13.27;66.42
75166;BME280;63747;48.042;10.088;2023-08-31T06:50:46;94924.09;;;13.28;66.21
75166;BME280;63747;48.042;10.088;2023-08-31T06:53:47;94926.34;;;13.24;66.15
75166;BME280;63747;48.042;10.088;2023-08-31T06:56:47;94922.19;;;13.15;66.40
75166;BME280;63747;48.042;10.088;2023-08-31T06:59:48;94927.72;;;13.20;66.28
75166;BME280;63747;48.042;10.088;2023-08-31T07:02:49;94938.00;;;13.23;66.30
75166;BME280;63747;48.042;10.088;2023-08-31T07:05:49;94938.28;;;13.35;66.29
75166;BME280;63747;48.042;10.088;2023-08-31T07:08:50;94938.25;;;13.28;66.15
75166;BME280;63747;48.042;10.088;2023-08-31T07:11:50;94930.06;;;13.30;66.32
75166;BME280;63747;48.042;10.088;2023-08-31T07:14:51;94938.94;;;13.44;65.95
75166;BME280;63747;48.042;10.088;2023-08-31T07:17:51;94946.00;;;13.71;65.88
75166;BME280;63747;48.042;10.088;2023-08-31T07:20:52;94952.00;;;13.86;65.45
75166;BME280;63747;48.042;10.088;2023-08-31T07:23:52;94950.97;;;13.87;65.31
75166;BME280;63747;48.042;10.088;2023-08-31T07:26:54;94951.63;;;13.90;65.46
75166;BME280;63747;48.042;10.088;2023-08-31T07:29:54;94956.09;;;13.89;65.37
75166;BME280;63747;48.042;10.088;2023-08-31T07:32:55;94960.81;;;13.87;65.87
75166;BME280;63747;48.042;10.088;2023-08-31T07:35:56;94955.72;;;13.92;65.70
75166;BME280;63747;48.042;10.088;2023-08-31T07:38:57;94957.78;;;13.97;65.56
75166;BME280;63747;48.042;10.088;2023-08-31T07:41:57;94969.47;;;14.02;65.45
75166;BME280;63747;48.042;10.088;2023-08-31T07:44:59;94966.16;;;13.94;65.89
75166;BME280;63747;48.042;10.088;2023-08-31T07:47:59;94965.16;;;14.01;65.83
75166;BME280;63747;48.042;10.088;2023-08-31T07:51:00;94960.06;;;14.06;65.31
75166;BME280;63747;48.042;10.088;2023-08-31T07:54:00;94956.38;;;14.14;65.45
75166;BME280;63747;48.042;10.088;2023-08-31T07:57:03;94969.56;;;14.29;65.21
75166;BME280;63747;48.042;10.088;2023-08-31T08:00:04;94973.06;;;14.29;64.97
75166;BME280;63747;48.042;10.088;2023-08-31T08:03:04;94976.75;;;14.28;64.95
75166;BME280;63747;48.042;10.088;2023-08-31T08:06:05;94988.66;;;14.32;64.75
75166;BME280;63747;48.042;10.088;2023-08-31T08:09:05;94991.94;;;14.34;64.84
75166;BME280;63747;48.042;10.088;2023-08-31T08:12:06;94994.41;;;14.42;65.01
75166;BME280;63747;48.042;10.088;2023-08-31T08:15:07;94995.88;;;14.52;64.70
75166;BME280;63747;48.042;10.088;2023-08-31T08:18:08;94999.38;;;14.46;63.71
75166;BME280;63747;48.042;10.088;2023-08-31T08:21:09;94998.31;;;14.40;64.55
75166;BME280;63747;48.042;10.088;2023-08-31T08:24:09;95003.47;;;14.48;64.05
75166;BME280;63747;48.042;10.088;2023-08-31T08:27:10;95000.63;;;14.76;64.02
75166;BME280;63747;48.042;10.088;2023-08-31T08:30:10;95010.69;;;14.94;63.85
75166;BME280;63747;48.042;10.088;2023-08-31T08:33:11;95016.63;;;15.03;63.27
75166;BME280;63747;48.042;10.088;2023-08-31T08:36:11;95018.69;;;15.01;63.16
75166;BME280;63747;48.042;10.088;2023-08-31T08:39:12;95024.25;;;15.06;62.92
75166;BME280;63747;48.042;10.088;2023-08-31T08:42:13;95037.59;;;15.19;62.92
75166;BME280;63747;48.042;10.088;2023-08-31T08:45:14;95026.53;;;15.29;62.74
75166;BME280;63747;48.042;10.088;2023-08-31T08:48:15;95027.75;;;15.53;62.57
75166;BME280;63747;48.042;10.088;2023-08-31T08:51:16;95023.59;;;15.57;62.30
75166;BME280;63747;48.042;10.088;2023-08-31T08:54:17;95021.72;;;15.70;61.96
75166;BME280;63747;48.042;10.088;2023-08-31T08:57:18;95023.66;;;16.08;61.81
75166;BME280;63747;48.042;10.088;2023-08-31T09:00:19;95022.91;;;16.39;60.05
75166;BME280;63747;48.042;10.088;2023-08-31T09:03:19;95018.81;;;16.37;60.18
75166;BME280;63747;48.042;10.088;2023-08-31T09:06:20;95031.69;;;16.08;59.40
75166;BME280;63747;48.042;10.088;2023-08-31T09:09:20;95025.31;;;16.02;60.05
75166;BME280;63747;48.042;10.088;2023-08-31T09:12:22;95017.06;;;16.17;60.00
75166;BME280;63747;48.042;10.088;2023-08-31T09:15:23;95025.53;;;16.08;59.88
75166;BME280;63747;48.042;10.088;2023-08-31T09:18:26;95035.88;;;15.84;59.22
75166;BME280;63747;48.042;10.088;2023-08-31T09:21:36;95044.59;;;15.46;59.00
75166;BME280;63747;48.042;10.088;2023-08-31T09:24:40;95052.16;;;15.10;57.05
75166;BME280;63747;48.042;10.088;2023-08-31T09:27:42;95047.44;;;14.79;57.79
75166;BME280;63747;48.042;10.088;2023-08-31T09:30:48;95059.50;;;14.68;59.35
75166;BME280;63747;48.042;10.088;2023-08-31T09:33:49;95051.94;;;14.72;59.78
75166;BME280;63747;48.042;10.088;2023-08-31T09:36:50;95057.91;;;14.80;60.08
75166;BME280;63747;48.042;10.088;2023-08-31T09:39:51;95060.97;;;14.84;59.73
75166;BME280;63747;48.042;10.088;2023-08-31T09:42:52;95060.56;;;14.80;60.61
75166;BME280;63747;48.042;10.088;2023-08-31T09:45:53;95066.50;;;14.82;60.40
75166;BME280;63747;48.042;10.088;2023-08-31T09:48:54;95074.94;;;14.73;60.85
75166;BME280;63747;48.042;10.088;2023-08-31T09:51:54;95058.50;;;14.76;60.57
75166;BME280;63747;48.042;10.088;2023-08-31T09:54:55;95055.84;;;14.82;60.58
75166;BME280;63747;48.042;10.088;2023-08-31T09:57:56;95060.16;;;14.90;60.42
75166;BME280;63747;48.042;10.088;2023-08-31T10:01:00;95062.06;;;15.29;60.05
75166;BME280;63747;48.042;10.088;2023-08-31T10:04:02;95061.97;;;15.89;58.30
75166;BME280;63747;48.042;10.088;2023-08-31T10:07:03;95069.50;;;16.12;58.52
75166;BME280;63747;48.042;10.088;2023-08-31T10:10:06;95064.94;;;16.32;58.98
75166;BME280;63747;48.042;10.088;2023-08-31T10:13:07;95072.19;;;16.18;58.45
75166;BME280;63747;48.042;10.088;2023-08-31T10:16:08;95069.34;;;16.00;58.08
75166;BME280;63747;48.042;10.088;2023-08-31T10:19:09;95069.91;;;16.15;58.58
75166;BME280;63747;48.042;10.088;2023-08-31T10:22:09;95067.41;;;16.72;57.93
75166;BME280;63747;48.042;10.088;2023-08-31T10:25:10;95057.34;;;16.99;57.50
75166;BME280;63747;48.042;10.088;2023-08-31T10:28:45;95062.13;;;16.97;57.81
75166;BME280;63747;48.042;10.088;2023-08-31T10:31:38;95071.56;;;16.68;56.20
75166;BME280;63747;48.042;10.088;2023-08-31T10:34:39;95076.72;;;16.11;56.62
75166;BME280;63747;48.042;10.088;2023-08-31T10:37:40;95075.78;;;15.86;58.25
75166;BME280;63747;48.042;10.088;2023-08-31T10:40:41;95072.03;;;15.93;58.74
75166;BME280;63747;48.042;10.088;2023-08-31T10:43:45;95082.28;;;16.16;58.27
75166;BME280;63747;48.042;10.088;2023-08-31T10:46:47;95082.81;;;16.38;58.17
75166;BME280;63747;48.042;10.088;2023-08-31T10:49:50;95078.25;;;16.45;57.42
75166;BME280;63747;48.042;10.088;2023-08-31T10:52:52;95075.91;;;16.62;57.82
75166;BME280;63747;48.042;10.088;2023-08-31T10:55:52;95070.75;;;16.99;57.37
75166;BME280;63747;48.042;10.088;2023-08-31T10:59:00;95072.13;;;17.15;57.10
75166;BME280;63747;48.042;10.088;2023-08-31T11:02:01;95061.50;;;17.26;56.39
75166;BME280;63747;48.042;10.088;2023-08-31T11:05:08;95058.94;;;17.38;56.76
75166;BME280;63747;48.042;10.088;2023-08-31T11:08:09;95058.25;;;17.67;56.91
75166;BME280;63747;48.042;10.088;2023-08-31T11:11:09;95050.16;;;17.92;55.81
75166;BME280;63747;48.042;10.088;2023-08-31T11:14:10;95051.44;;;17.90;53.67
75166;BME280;63747;48.042;10.088;2023-08-31T11:17:10;95053.31;;;18.44;52.72
75166;BME280;63747;48.042;10.088;2023-08-31T11:20:15;95059.81;;;18.97;53.40
75166;BME280;63747;48.042;10.088;2023-08-31T11:23:16;95050.31;;;18.53;52.72
75166;BME280;63747;48.042;10.088;2023-08-31T11:26:17;95051.53;;;18.38;53.48
75166;BME280;63747;48.042;10.088;2023-08-31T11:29:17;95054.78;;;18.40;53.10
75166;BME280;63747;48.042;10.088;2023-08-31T11:32:18;95047.13;;;18.26;53.15
75166;BME280;63747;48.042;10.088;2023-08-31T11:35:19;95045.13;;;18.21;51.02
75166;BME280;63747;48.042;10.088;2023-08-31T11:38:19;95050.56;;;18.14;47.92
75166;BME280;63747;48.042;10.088;2023-08-31T11:41:20;95051.19;;;18.16;52.47
75166;BME280;63747;48.042;10.088;2023-08-31T11:44:20;95057.44;;;18.10;49.46
75166;BME280;63747;48.042;10.088;2023-08-31T11:47:21;95055.50;;;17.99;51.42
75166;BME280;63747;48.042;10.088;2023-08-31T11:50:22;95056.09;;;18.19;51.62
75166;BME280;63747;48.042;10.088;2023-08-31T11:53:24;95058.53;;;18.39;51.96
75166;BME280;63747;48.042;10.088;2023-08-31T11:56:25;95057.47;;;18.40;51.75
75166;BME280;63747;48.042;10.088;2023-08-31T11:59:25;95057.59;;;18.64;51.59
75166;BME280;63747;48.042;10.088;2023-08-31T12:02:26;95064.47;;;18.41;49.09
75166;BME280;63747;48.042;10.088;2023-08-31T12:05:27;95056.31;;;18.36;51.41
75166;BME280;63747;48.042;10.088;2023-08-31T12:08:28;95062.41;;;18.43;51.29
75166;BME280;63747;48.042;10.088;2023-08-31T12:11:28;95056.06;;;18.38;51.42
75166;BME280;63747;48.042;10.088;2023-08-31T12:14:29;95062.25;;;18.87;50.79
75166;BME280;63747;48.042;10.088;2023-08-31T12:17:30;95051.16;;;19.48;49.95
75166;BME280;63747;48.042;10.088;2023-08-31T12:20:31;95058.53;;;20.11;48.68
75166;BME280;63747;48.042;10.088;2023-08-31T12:23:32;95043.03;;;20.54;48.75
75166;BME280;63747;48.042;10.088;2023-08-31T12:26:34;95045.88;;;20.24;48.04
75166;BME280;63747;48.042;10.088;2023-08-31T12:29:35;95050.88;;;19.80;49.02
75166;BME280;63747;48.042;10.088;2023-08-31T12:32:36;95048.28;;;19.62;49.01
75166;BME280;63747;48.042;10.088;2023-08-31T12:35:36;95052.38;;;19.76;49.43
75166;BME280;63747;48.042;10.088;2023-08-31T12:38:36;95064.28;;;20.15;48.01
75166;BME280;63747;48.042;10.088;2023-08-31T12:41:38;95062.03;;;20.12;47.14
75166;BME280;63747;48.042;10.088;2023-08-31T12:44:38;95065.22;;;20.09;47.60
75166;BME280;63747;48.042;10.088;2023-08-31T12:47:39;95063.66;;;20.25;43.28
75166;BME280;63747;48.042;10.088;2023-08-31T12:50:40;95058.91;;;20.15;47.07
75166;BME280;63747;48.042;10.088;2023-08-31T12:53:41;95059.84;;;20.09;46.62
75166;BME280;63747;48.042;10.088;2023-08-31T12:56:41;95060.00;;;19.79;47.13
75166;BME280;63747;48.042;10.088;2023-08-31T12:59:42;95051.22;;;19.72;47.73
75166;BME280;63747;48.042;10.088;2023-08-31T13:02:42;95052.13;;;19.54;45.07
75166;BME280;63747;48.042;10.088;2023-08-31T13:05:45;95055.59;;;19.43;47.54
75166;BME280;63747;48.042;10.088;2023-08-31T13:08:45;95058.41;;;19.36;46.61
75166;BME280;63747;48.042;10.088;2023-08-31T13:11:46;95060.75;;;19.44;47.56
75166;BME280;63747;48.042;10.088;2023-08-31T13:14:46;95055.78;;;19.60;46.96
75166;BME280;63747;48.042;10.088;2023-08-31T13:17:47;95052.13;;;19.77;47.39
75166;BME280;63747;48.042;10.088;2023-08-31T13:20:53;95059.59;;;19.99;47.39
75166;BME280;63747;48.042;10.088;2023-08-31T13:23:54;95055.28;;;20.09;46.01
75166;BME280;63747;48.042;10.088;2023-08-31T13:26:55;95046.44;;;20.49;46.35
75166;BME280;63747;48.042;10.088;2023-08-31T13:29:56;95052.75;;;20.55;44.24
75166;BME280;63747;48.042;10.088;2023-08-31T13:32:56;95060.50;;;20.28;45.94
75166;BME280;63747;48.042;10.088;2023-08-31T13:35:57;95055.59;;;20.25;45.39
75166;BME280;63747;48.042;10.088;2023-08-31T13:39:00;95044.25;;;20.23;45.76
75166;BME280;63747;48.042;10.088;2023-08-31T13:42:01;95046.97;;;20.11;45.88
75166;BME280;63747;48.042;10.088;2023-08-31T13:45:07;95046.03;;;20.05;47.01
75166;BME280;63747;48.042;10.088;2023-08-31T13:48:07;95043.63;;;20.32;47.31
75166;BME280;63747;48.042;10.088;2023-08-31T13:51:08;95046.91;;;20.34;46.01
75166;BME280;63747;48.042;10.088;2023-08-31T13:54:08;95048.31;;;20.25;45.94
75166;BME280;63747;48.042;10.088;2023-08-31T13:57:09;95045.28;;;20.33;45.80
75166;BME280;63747;48.042;10.088;2023-08-31T14:00:10;95043.31;;;20.69;45.99
75166;BME280;63747;48.042;10.088;2023-08-31T14:03:11;95049.00;;;20.32;44.04
75166;BME280;63747;48.042;10.088;2023-08-31T14:06:11;95039.50;;;20.01;45.77
75166;BME280;63747;48.042;10.088;2023-08-31T14:09:13;95049.31;;;19.96;44.96
75166;BME280;63747;48.042;10.088;2023-08-31T14:12:14;95049.00;;;19.69;45.98
75166;BME280;63747;48.042;10.088;2023-08-31T14:15:14;95042.06;;;19.84;46.62
75166;BME280;63747;48.042;10.088;2023-08-31T14:18:16;95042.78;;;19.68;46.62
75166;BME280;63747;48.042;10.088;2023-08-31T14:21:16;95039.72;;;19.53;47.02
75166;BME280;63747;48.042;10.088;2023-08-31T14:24:17;95046.97;;;19.52;47.27
75166;BME280;63747;48.042;10.088;2023-08-31T14:27:17;95041.72;;;19.46;46.51
75166;BME280;63747;48.042;10.088;2023-08-31T14:30:18;95043.47;;;19.40;46.12
75166;BME280;63747;48.042;10.088;2023-08-31T14:33:18;95042.94;;;19.08;46.04
75166;BME280;63747;48.042;10.088;2023-08-31T14:36:19;95046.47;;;19.20;47.55
75166;BME280;63747;48.042;10.088;2023-08-31T14:39:19;95047.28;;;19.44;47.08
75166;BME280;63747;48.042;10.088;2023-08-31T14:42:20;95046.88;;;19.71;47.46
75166;BME280;63747;48.042;10.088;2023-08-31T14:45:21;95050.38;;;19.95;47.27
75166;BME280;63747;48.042;10.088;2023-08-31T14:48:21;95047.13;;;19.93;47.00
75166;BME280;63747;48.042;10.088;2023-08-31T14:51:22;95052.94;;;19.78;46.53
75166;BME280;63747;48.042;10.088;2023-08-31T14:54:22;95046.06;;;19.70;47.38
75166;BME280;63747;48.042;10.088;2023-08-31T14:57:23;95044.22;;;19.59;46.75
75166;BME280;63747;48.042;10.088;2023-08-31T15:00:24;95051.56;;;19.64;47.42
75166;BME280;63747;48.042;10.088;2023-08-31T15:03:24;95056.47;;;19.67;47.64
75166;BME280;63747;48.042;10.088;2023-08-31T15:06:25;95054.00;;;19.77;47.79
75166;BME280;63747;48.042;10.088;2023-08-31T15:09:25;95041.03;;;19.86;48.14
75166;BME280;63747;48.042;10.088;2023-08-31T15:12:26;95050.38;;;19.83;47.94
75166;BME280;63747;48.042;10.088;2023-08-31T15:15:27;95049.25;;;19.79;48.34
75166;BME280;63747;48.042;10.088;2023-08-31T15:18:28;95045.00;;;19.83;48.23
75166;BME280;63747;48.042;10.088;2023-08-31T15:21:29;95056.13;;;19.87;48.58
75166;BME280;63747;48.042;10.088;2023-08-31T15:24:30;95052.63;;;19.74;48.10
75166;BME280;63747;48.042;10.088;2023-08-31T15:27:30;95047.81;;;19.65;49.14
75166;BME280;63747;48.042;10.088;2023-08-31T15:30:31;95043.72;;;19.62;49.00
75166;BME280;63747;48.042;10.088;2023-08-31T15:33:32;95044.28;;;19.52;48.92
75166;BME280;63747;48.042;10.088;2023-08-31T15:36:33;95041.59;;;19.41;48.90
75166;BME280;63747;48.042;10.088;2023-08-31T15:39:34;95043.81;;;19.32;48.75
75166;BME280;63747;48.042;10.088;2023-08-31T15:42:34;95047.00;;;19.11;48.67
75166;BME280;63747;48.042;10.088;2023-08-31T15:45:35;95044.97;;;18.83;48.91
75166;BME280;63747;48.042;10.088;2023-08-31T15:48:35;95052.72;;;18.91;48.81
75166;BME280;63747;48.042;10.088;2023-08-31T15:51:36;95053.78;;;18.71;48.71
75166;BME280;63747;48.042;10.088;2023-08-31T15:54:36;95054.03;;;18.52;49.04